Time;durP1;ratioP1;P1;durP2;ratioP2;P2;SDS_P1;SDS_P2;PMS_P1;PMS_P2;Temp;Humidity;BMP_temperature;BMP_pressure;BME280_temperature;BME280_humidity;BME280_pressure;Samples;Min_cycle;Max_cycle;Signal;HPM_P1;HPM_P2
2023/10/27 00:01:23;;;;;;;211.70;43.92;;;5.70;99.90;;;;;;4994083;28;20038;-68
2023/10/27 00:03:49;;;;;;;253.27;44.72;;;5.80;99.90;;;;;;4997883;28;20140;-68
2023/10/27 00:06:17;;;;;;;150.40;38.55;;;5.80;99.90;;;;;;5005769;28;20120;-68
2023/10/27 00:08:44;;;;;;;169.93;39.05;;;5.80;99.90;;;;;;4993800;28;20633;-71
2023/10/27 00:11:11;;;;;;;173.85;39.92;;;5.70;99.90;;;;;;4996784;28;20038;-70
2023/10/27 00:13:37;;;;;;;202.65;42.90;;;5.70;99.90;;;;;;4999853;28;20091;-72
2023/10/27 00:16:11;;;;;;;229.10;45.53;;;5.70;99.90;;;;;;4988481;28;20046;-71
2023/10/27 00:18:38;;;;;;;266.25;45.42;;;5.80;99.90;;;;;;5003206;28;20524;-70
2023/10/27 00:21:05;;;;;;;277.27;48.22;;;5.90;99.90;;;;;;5025472;28;20113;-69
2023/10/27 00:23:32;;;;;;;278.77;49.42;;;5.90;99.90;;;;;;5025555;28;20038;-70
2023/10/27 00:25:59;;;;;;;298.48;49.53;;;6.00;99.90;;;;;;5013933;28;20073;-71
2023/10/27 00:28:26;;;;;;;355.23;56.10;;;6.00;99.90;;;;;;5003521;28;20049;-71
2023/10/27 00:30:53;;;;;;;372.48;55.85;;;6.10;99.90;;;;;;4998393;28;20047;-70
2023/10/27 00:33:20;;;;;;;439.08;62.47;;;6.10;99.90;;;;;;5003331;28;20138;-70
2023/10/27 00:35:51;;;;;;;387.17;59.35;;;6.10;99.90;;;;;;4990808;28;20534;-71
2023/10/27 00:38:19;;;;;;;445.48;62.88;;;6.30;99.90;;;;;;4997430;28;20053;-71
2023/10/27 00:40:46;;;;;;;289.23;52.53;;;6.40;99.90;;;;;;4992205;28;21636;-70
2023/10/27 00:43:17;;;;;;;420.40;58.88;;;6.50;99.90;;;;;;5000794;28;20029;-71
2023/10/27 00:45:50;;;;;;;441.52;62.72;;;6.50;99.90;;;;;;4997558;28;20052;-70
2023/10/27 00:48:18;;;;;;;397.80;59.83;;;6.50;99.90;;;;;;4999638;28;20051;-71
2023/10/27 00:50:46;;;;;;;481.60;64.30;;;6.60;99.90;;;;;;4993249;28;20041;-71
2023/10/27 00:53:17;;;;;;;517.25;65.40;;;6.80;99.90;;;;;;5002115;28;20047;-70
2023/10/27 00:55:44;;;;;;;528.72;65.80;;;6.90;99.90;;;;;;4993306;28;20041;-71
2023/10/27 00:58:12;;;;;;;465.88;58.55;;;6.80;99.90;;;;;;5014955;28;20065;-69
2023/10/27 01:00:39;;;;;;;506.73;61.63;;;7.00;99.90;;;;;;4991296;28;20537;-69
2023/10/27 01:03:06;;;;;;;368.63;52.50;;;7.00;99.90;;;;;;5000002;28;20049;-69
2023/10/27 01:05:32;;;;;;;293.20;45.78;;;6.90;99.90;;;;;;4996405;28;20136;-67
2023/10/27 01:08:00;;;;;;;309.80;47.88;;;6.60;99.90;;;;;;4998233;28;20045;-72
2023/10/27 01:10:27;;;;;;;377.40;53.70;;;6.60;99.90;;;;;;4990587;28;20038;-68
2023/10/27 01:12:54;;;;;;;344.00;48.90;;;6.60;99.90;;;;;;4990610;28;20041;-68
2023/10/27 01:15:21;;;;;;;324.75;50.08;;;6.60;99.90;;;;;;5000657;28;20088;-69
2023/10/27 01:17:48;;;;;;;278.15;46.58;;;6.80;99.90;;;;;;4998151;28;20046;-70
2023/10/27 01:20:15;;;;;;;288.20;47.33;;;6.90;99.90;;;;;;4998866;28;20188;-69
2023/10/27 01:22:47;;;;;;;269.35;47.40;;;7.00;99.90;;;;;;4997072;28;20060;-70
2023/10/27 01:25:14;;;;;;;322.23;49.88;;;7.10;99.90;;;;;;4990940;28;20050;-69
2023/10/27 01:27:41;;;;;;;435.20;58.05;;;7.10;99.90;;;;;;4994539;28;20087;-69
2023/10/27 01:30:09;;;;;;;316.38;50.08;;;7.20;99.90;;;;;;4992862;28;20528;-69
2023/10/27 01:32:36;;;;;;;272.60;47.60;;;7.20;99.90;;;;;;4994656;28;20713;-69
2023/10/27 01:35:04;;;;;;;297.85;49.58;;;7.30;99.90;;;;;;4986572;28;20067;-69
2023/10/27 01:37:31;;;;;;;312.67;51.00;;;7.40;99.90;;;;;;4998769;28;20107;-69
2023/10/27 01:39:58;;;;;;;263.30;48.45;;;7.50;99.90;;;;;;4997373;28;20053;-69
2023/10/27 01:42:24;;;;;;;303.00;50.72;;;7.50;99.90;;;;;;4988466;28;20073;-69
2023/10/27 01:44:53;;;;;;;298.27;50.25;;;7.60;99.90;;;;;;4990537;28;20050;-68
2023/10/27 01:47:19;;;;;;;318.23;54.38;;;7.70;99.90;;;;;;4990756;28;20061;-69
2023/10/27 01:49:46;;;;;;;316.90;56.10;;;7.80;99.90;;;;;;4997061;28;20050;-70
2023/10/27 01:52:13;;;;;;;328.27;58.80;;;7.90;99.90;;;;;;5010647;28;20037;-67
2023/10/27 01:54:40;;;;;;;307.50;55.08;;;7.90;99.90;;;;;;4988709;28;21365;-69
2023/10/27 01:57:06;;;;;;;309.65;58.30;;;8.00;99.90;;;;;;4996584;28;20093;-70
2023/10/27 01:59:34;;;;;;;337.75;57.88;;;8.00;99.90;;;;;;4998044;28;20057;-68
2023/10/27 02:02:01;;;;;;;299.05;55.30;;;8.10;99.90;;;;;;4991277;28;20165;-69
2023/10/27 02:04:27;;;;;;;312.75;58.97;;;8.10;99.90;;;;;;4999015;28;20128;-69
2023/10/27 02:06:55;;;;;;;339.90;59.28;;;8.20;99.90;;;;;;4991367;28;20046;-70
2023/10/27 02:09:22;;;;;;;314.00;57.90;;;8.30;99.90;;;;;;5000783;28;20054;-70
2023/10/27 02:11:48;;;;;;;381.42;63.30;;;8.20;99.90;;;;;;4987018;28;20038;-69
2023/10/27 02:14:18;;;;;;;286.25;58.45;;;8.20;99.90;;;;;;5000766;28;20146;-70
2023/10/27 02:16:44;;;;;;;330.42;62.90;;;8.20;99.90;;;;;;4969341;28;20042;-69
2023/10/27 02:19:13;;;;;;;287.33;56.90;;;8.30;99.90;;;;;;4997038;28;20696;-69
2023/10/27 02:21:40;;;;;;;281.38;57.13;;;8.30;99.90;;;;;;4991993;28;20049;-69
2023/10/27 02:24:06;;;;;;;314.23;62.60;;;8.30;99.90;;;;;;4990134;28;20037;-69
2023/10/27 02:26:34;;;;;;;276.92;58.58;;;8.30;99.90;;;;;;4993078;28;20147;-69
2023/10/27 02:29:00;;;;;;;249.30;57.20;;;8.30;99.90;;;;;;4992774;28;20727;-70
2023/10/27 02:31:28;;;;;;;254.60;60.58;;;8.30;99.90;;;;;;4997463;28;20500;-69
2023/10/27 02:33:55;;;;;;;263.83;58.83;;;8.40;99.90;;;;;;4993411;28;20038;-70
2023/10/27 02:36:23;;;;;;;290.23;59.45;;;8.40;99.90;;;;;;4993631;28;20428;-70
2023/10/27 02:38:49;;;;;;;299.33;63.63;;;8.40;99.90;;;;;;4998482;28;20061;-70
2023/10/27 02:41:16;;;;;;;251.38;59.25;;;8.40;99.90;;;;;;4987047;28;20050;-70
2023/10/27 02:43:43;;;;;;;262.38;59.95;;;8.40;99.90;;;;;;4989119;28;20041;-70
2023/10/27 02:46:13;;;;;;;268.90;62.88;;;8.50;99.90;;;;;;4998839;28;20045;-71
2023/10/27 02:48:41;;;;;;;269.13;62.15;;;8.50;99.90;;;;;;5001596;28;20062;-69
2023/10/27 02:51:09;;;;;;;303.98;61.67;;;8.50;99.90;;;;;;4993300;28;20060;-70
2023/10/27 02:53:36;;;;;;;266.48;60.42;;;8.50;99.90;;;;;;5001423;28;20496;-69
2023/10/27 02:56:07;;;;;;;309.40;62.10;;;8.40;99.90;;;;;;4989972;28;20068;-70
2023/10/27 02:58:34;;;;;;;279.52;59.13;;;8.40;99.90;;;;;;4999946;28;20041;-69
2023/10/27 03:01:06;;;;;;;266.98;59.58;;;8.40;99.90;;;;;;5001156;28;20061;-70
2023/10/27 03:03:34;;;;;;;285.23;61.88;;;8.50;99.90;;;;;;4994686;28;20138;-70
2023/10/27 03:06:01;;;;;;;306.20;61.17;;;8.50;99.90;;;;;;4998209;28;20037;-69
2023/10/27 03:08:28;;;;;;;258.90;57.65;;;8.40;99.90;;;;;;4995964;28;20038;-71
2023/10/27 03:10:55;;;;;;;288.25;59.30;;;8.40;99.90;;;;;;4990689;28;20046;-70
2023/10/27 03:13:21;;;;;;;303.52;60.42;;;8.60;99.90;;;;;;4998019;28;20049;-72
2023/10/27 03:15:48;;;;;;;335.17;61.17;;;8.50;99.90;;;;;;4993881;28;20043;-70
2023/10/27 03:18:15;;;;;;;262.63;57.75;;;8.50;99.90;;;;;;4997934;28;20613;-70
2023/10/27 03:20:42;;;;;;;279.35;57.42;;;8.60;99.90;;;;;;5002204;28;20558;-72
2023/10/27 03:23:10;;;;;;;311.60;63.35;;;8.60;99.90;;;;;;4993050;28;20034;-72
2023/10/27 03:25:37;;;;;;;297.35;60.20;;;8.60;99.90;;;;;;4992786;28;20042;-70
2023/10/27 03:28:04;;;;;;;264.13;58.80;;;8.60;99.90;;;;;;4996618;28;20033;-70
2023/10/27 03:30:31;;;;;;;235.45;53.78;;;8.70;99.90;;;;;;4998948;28;20129;-71
2023/10/27 03:32:58;;;;;;;257.48;55.03;;;8.80;99.90;;;;;;4991279;28;20598;-71
2023/10/27 03:35:25;;;;;;;220.32;51.92;;;8.70;99.90;;;;;;4997222;28;20420;-71
2023/10/27 03:37:52;;;;;;;221.98;51.72;;;8.70;99.90;;;;;;4990454;28;20052;-70
2023/10/27 03:40:19;;;;;;;297.58;58.38;;;8.70;99.90;;;;;;4993909;28;20043;-71
2023/10/27 03:42:45;;;;;;;285.00;57.13;;;8.70;99.90;;;;;;4990538;28;20129;-70
2023/10/27 03:45:13;;;;;;;243.23;55.85;;;8.80;99.90;;;;;;4993769;28;20698;-72
2023/10/27 03:47:39;;;;;;;239.70;53.83;;;8.70;99.90;;;;;;4998698;28;20049;-71
2023/10/27 03:50:10;;;;;;;247.68;55.05;;;8.70;99.90;;;;;;4990836;28;20042;-71
2023/10/27 03:52:37;;;;;;;239.05;53.25;;;8.70;99.90;;;;;;4989977;28;20049;-70
2023/10/27 03:55:04;;;;;;;273.60;54.90;;;8.70;99.90;;;;;;4996073;28;20037;-71
2023/10/27 03:57:35;;;;;;;255.80;53.25;;;8.70;99.90;;;;;;4993605;28;20094;-70
2023/10/27 04:00:07;;;;;;;270.10;55.60;;;8.70;99.90;;;;;;4989062;28;20042;-68
2023/10/27 04:02:38;;;;;;;270.00;55.25;;;8.70;99.90;;;;;;4997794;28;20065;-69
2023/10/27 04:05:05;;;;;;;260.83;51.97;;;8.80;99.90;;;;;;4996118;28;20095;-68
2023/10/27 04:07:32;;;;;;;305.02;57.70;;;8.80;99.90;;;;;;4991572;28;20132;-70
2023/10/27 04:09:59;;;;;;;287.55;58.17;;;8.70;99.90;;;;;;4993001;28;20138;-69
2023/10/27 04:12:26;;;;;;;252.88;56.70;;;8.80;99.90;;;;;;4987351;28;20046;-69
2023/10/27 04:14:54;;;;;;;271.00;56.85;;;8.80;99.90;;;;;;4990202;28;20037;-68
2023/10/27 04:17:21;;;;;;;263.00;56.17;;;8.90;99.90;;;;;;4996421;28;20045;-69
2023/10/27 04:19:48;;;;;;;272.83;57.17;;;8.90;99.90;;;;;;4995113;28;20135;-69
2023/10/27 04:22:15;;;;;;;270.55;59.55;;;8.70;99.90;;;;;;4994557;28;20132;-69
2023/10/27 04:24:42;;;;;;;275.33;58.40;;;8.60;99.90;;;;;;4994487;28;20779;-69
2023/10/27 04:27:08;;;;;;;226.18;53.88;;;8.70;99.90;;;;;;4993537;28;20053;-70
2023/10/27 04:29:36;;;;;;;228.23;53.75;;;8.80;99.90;;;;;;4997639;28;20575;-70
2023/10/27 04:32:04;;;;;;;263.02;56.20;;;8.70;99.90;;;;;;4987740;28;20034;-69
2023/10/27 04:34:31;;;;;;;276.52;53.88;;;8.70;99.90;;;;;;4996288;28;20056;-69
2023/10/27 04:36:57;;;;;;;284.08;55.65;;;8.70;99.90;;;;;;4997095;28;20046;-69
2023/10/27 04:39:24;;;;;;;231.48;51.38;;;8.80;99.90;;;;;;4991962;28;20129;-69
2023/10/27 04:41:51;;;;;;;215.25;50.00;;;8.70;99.90;;;;;;4998581;28;20111;-68
2023/10/27 04:44:22;;;;;;;220.38;48.17;;;8.80;99.90;;;;;;5017201;28;20050;-69
2023/10/27 04:46:51;;;;;;;194.38;46.13;;;8.80;99.90;;;;;;5019851;28;20046;-68
2023/10/27 04:49:18;;;;;;;188.52;48.08;;;8.70;99.90;;;;;;5003171;28;20861;-70
2023/10/27 04:51:45;;;;;;;190.80;45.85;;;8.80;99.90;;;;;;4996813;28;20049;-69
2023/10/27 04:54:12;;;;;;;160.68;43.72;;;8.90;99.90;;;;;;4993355;28;20049;-69
2023/10/27 04:56:39;;;;;;;184.65;47.10;;;8.90;99.90;;;;;;4996699;28;20052;-69
2023/10/27 04:59:05;;;;;;;165.23;44.58;;;8.80;99.90;;;;;;4997714;28;20030;-69
2023/10/27 05:01:32;;;;;;;190.07;46.88;;;8.80;99.90;;;;;;5000485;28;20046;-71
2023/10/27 05:03:59;;;;;;;157.35;44.92;;;8.80;99.90;;;;;;4994902;28;20041;-69
2023/10/27 05:06:26;;;;;;;169.45;46.55;;;8.90;99.90;;;;;;5003875;28;20049;-70
2023/10/27 05:08:53;;;;;;;164.55;45.08;;;8.90;99.90;;;;;;5004440;28;20045;-70
2023/10/27 05:11:20;;;;;;;183.88;47.00;;;8.90;99.90;;;;;;4985876;28;20050;-69
2023/10/27 05:13:48;;;;;;;203.25;49.78;;;8.90;99.90;;;;;;5002531;28;20050;-68
2023/10/27 05:16:14;;;;;;;234.15;52.33;;;8.80;99.90;;;;;;4994856;28;20048;-69
2023/10/27 05:18:41;;;;;;;228.35;50.72;;;8.80;99.90;;;;;;4995396;28;20053;-69
2023/10/27 05:21:17;;;;;;;255.63;56.20;;;8.80;99.90;;;;;;4995645;28;20050;-70
2023/10/27 05:23:44;;;;;;;269.67;57.80;;;8.70;99.90;;;;;;4998249;28;20056;-70
2023/10/27 05:26:10;;;;;;;272.00;57.90;;;8.70;99.90;;;;;;4992287;28;20042;-70
2023/10/27 05:28:37;;;;;;;284.15;58.35;;;8.60;99.90;;;;;;5002145;28;20056;-70
2023/10/27 05:31:04;;;;;;;301.42;59.30;;;8.60;99.90;;;;;;4987382;28;20428;-71
2023/10/27 05:33:32;;;;;;;297.58;59.92;;;8.60;99.90;;;;;;4999279;28;20523;-70
2023/10/27 05:35:58;;;;;;;339.90;64.32;;;8.60;99.90;;;;;;4995814;28;20049;-71
2023/10/27 05:38:26;;;;;;;348.88;64.40;;;8.60;99.90;;;;;;4997301;28;20131;-69
2023/10/27 05:40:53;;;;;;;334.42;62.03;;;8.60;99.90;;;;;;4993735;28;20046;-71
2023/10/27 05:43:20;;;;;;;351.30;64.07;;;8.60;99.90;;;;;;4997405;28;20095;-70
2023/10/27 05:45:48;;;;;;;341.70;63.95;;;8.60;99.90;;;;;;5000656;28;20453;-71
2023/10/27 05:48:14;;;;;;;383.20;71.90;;;8.60;99.90;;;;;;5002411;28;20127;-71
2023/10/27 05:50:42;;;;;;;436.27;72.38;;;8.60;99.90;;;;;;4995855;28;20060;-71
2023/10/27 05:53:08;;;;;;;431.75;71.10;;;8.60;99.90;;;;;;5003111;28;20053;-71
2023/10/27 05:55:35;;;;;;;393.77;69.22;;;8.50;99.90;;;;;;4998958;28;20057;-70
2023/10/27 05:58:02;;;;;;;464.73;77.18;;;8.50;99.90;;;;;;5000668;28;20056;-69
2023/10/27 06:00:29;;;;;;;459.83;78.30;;;8.50;99.90;;;;;;4996670;28;20053;-70
2023/10/27 06:02:56;;;;;;;544.22;80.03;;;8.50;99.90;;;;;;4999190;28;20057;-72
2023/10/27 06:05:23;;;;;;;498.35;83.05;;;8.60;99.90;;;;;;4995476;28;20068;-70
2023/10/27 06:07:50;;;;;;;408.10;70.38;;;8.60;99.90;;;;;;4996709;28;20053;-71
2023/10/27 06:10:18;;;;;;;451.23;75.20;;;8.60;99.90;;;;;;4997829;28;20045;-69
2023/10/27 06:12:45;;;;;;;428.08;68.97;;;8.60;99.90;;;;;;4996112;28;20143;-69
2023/10/27 06:15:11;;;;;;;490.42;75.00;;;8.60;99.90;;;;;;4995093;28;20141;-70
2023/10/27 06:17:39;;;;;;;514.60;76.78;;;8.60;99.90;;;;;;5001409;28;20123;-70
2023/10/27 06:20:06;;;;;;;504.75;75.50;;;8.60;99.90;;;;;;4994269;28;20438;-70
2023/10/27 06:22:45;;;;;;;480.33;75.03;;;8.70;99.90;;;;;;4999130;28;20060;-70
2023/10/27 06:25:12;;;;;;;530.28;79.75;;;8.60;99.90;;;;;;4991364;28;20049;-70
2023/10/27 06:27:38;;;;;;;454.95;74.68;;;8.70;99.90;;;;;;4998583;28;20128;-69
2023/10/27 06:30:06;;;;;;;402.67;71.75;;;8.70;99.90;;;;;;4994386;28;20037;-69
2023/10/27 06:32:33;;;;;;;446.08;72.10;;;8.80;99.90;;;;;;4998218;28;20041;-70
2023/10/27 06:35:00;;;;;;;397.30;67.43;;;8.80;99.90;;;;;;5001356;28;20042;-70
2023/10/27 06:37:27;;;;;;;388.38;68.25;;;8.80;99.90;;;;;;4994095;28;20046;-69
2023/10/27 06:39:58;;;;;;;341.73;61.58;;;8.80;99.90;;;;;;4994682;28;20459;-68
2023/10/27 06:42:26;;;;;;;316.85;60.58;;;8.80;99.90;;;;;;4988724;28;20052;-70
2023/10/27 06:44:53;;;;;;;329.83;61.97;;;8.70;99.90;;;;;;5002352;28;20166;-69
2023/10/27 06:47:20;;;;;;;351.48;58.22;;;8.80;99.90;;;;;;4990653;28;20038;-70
2023/10/27 06:49:49;;;;;;;330.83;62.00;;;8.80;99.90;;;;;;4993123;28;20514;-70
2023/10/27 06:52:16;;;;;;;299.63;58.50;;;8.90;99.90;;;;;;4990944;28;20447;-70
2023/10/27 06:54:43;;;;;;;314.50;59.08;;;8.90;99.90;;;;;;5000382;28;20516;-69
2023/10/27 06:57:11;;;;;;;303.65;59.15;;;8.80;99.90;;;;;;4995554;28;20064;-70
2023/10/27 06:59:38;;;;;;;294.10;56.65;;;8.80;99.90;;;;;;4993100;28;20092;-69
2023/10/27 07:02:05;;;;;;;266.73;52.97;;;8.80;99.90;;;;;;5004607;28;20038;-70
2023/10/27 07:04:32;;;;;;;260.05;53.25;;;8.70;99.90;;;;;;4999525;28;20045;-69
2023/10/27 07:06:59;;;;;;;258.73;50.22;;;8.70;99.90;;;;;;5001065;28;20034;-69
2023/10/27 07:09:27;;;;;;;272.70;53.17;;;8.70;99.90;;;;;;4990474;28;21782;-71
2023/10/27 07:11:53;;;;;;;226.43;49.20;;;8.70;99.90;;;;;;4988299;28;20501;-69
2023/10/27 07:14:20;;;;;;;213.43;49.55;;;8.70;99.90;;;;;;4989928;28;20053;-69
2023/10/27 07:16:51;;;;;;;222.55;49.67;;;8.80;99.90;;;;;;4995577;28;20054;-70
2023/10/27 07:19:19;;;;;;;218.52;50.22;;;8.90;99.90;;;;;;4998903;28;20046;-71
2023/10/27 07:21:48;;;;;;;201.20;49.40;;;9.10;99.90;;;;;;5000772;28;20042;-69
2023/10/27 07:24:15;;;;;;;217.20;51.38;;;9.10;99.90;;;;;;4986962;28;20053;-70
2023/10/27 07:26:41;;;;;;;190.80;49.60;;;9.10;99.90;;;;;;4994642;28;20061;-70
2023/10/27 07:29:09;;;;;;;191.45;49.90;;;9.00;99.90;;;;;;4995851;28;20511;-68
2023/10/27 07:31:37;;;;;;;197.93;51.50;;;9.00;99.90;;;;;;5000377;28;20042;-70
2023/10/27 07:34:07;;;;;;;187.52;48.47;;;8.90;99.90;;;;;;4998161;28;20073;-68
2023/10/27 07:36:34;;;;;;;171.38;46.95;;;9.00;99.90;;;;;;4996523;28;20046;-70
2023/10/27 07:39:01;;;;;;;160.13;46.17;;;9.00;99.90;;;;;;5001863;28;20084;-69
2023/10/27 07:41:28;;;;;;;170.52;45.92;;;8.90;99.90;;;;;;4985328;28;20061;-70
2023/10/27 07:43:54;;;;;;;161.27;46.15;;;8.90;99.90;;;;;;4999762;28;20053;-69
2023/10/27 07:46:21;;;;;;;141.60;42.63;;;9.00;99.90;;;;;;4997559;28;20045;-68
2023/10/27 07:48:48;;;;;;;158.93;47.55;;;9.10;99.90;;;;;;5000607;28;20145;-68
2023/10/27 07:51:15;;;;;;;154.55;44.40;;;9.20;99.90;;;;;;4988890;28;20048;-70
2023/10/27 07:53:42;;;;;;;163.20;47.15;;;9.30;99.90;;;;;;4996251;28;20608;-69
2023/10/27 07:56:11;;;;;;;163.55;46.28;;;9.50;99.90;;;;;;4999576;28;20550;-69
2023/10/27 07:58:38;;;;;;;178.85;47.03;;;9.40;99.90;;;;;;5003524;28;20174;-69
2023/10/27 08:01:05;;;;;;;157.15;46.85;;;9.40;99.90;;;;;;4994466;28;20229;-69
2023/10/27 08:03:35;;;;;;;178.98;48.22;;;9.50;99.90;;;;;;4997026;28;20656;-69
2023/10/27 08:06:07;;;;;;;166.43;46.58;;;9.50;99.90;;;;;;5001819;28;20073;-69
2023/10/27 08:08:37;;;;;;;163.18;47.60;;;9.50;99.90;;;;;;4994036;28;20053;-69
2023/10/27 08:11:05;;;;;;;168.02;48.90;;;9.50;99.90;;;;;;4993753;28;20042;-69
2023/10/27 08:13:32;;;;;;;168.00;48.42;;;9.50;99.90;;;;;;5000436;28;20053;-69
2023/10/27 08:16:00;;;;;;;160.93;47.72;;;9.50;99.90;;;;;;4999170;28;20069;-68
2023/10/27 08:18:26;;;;;;;173.88;47.67;;;9.50;99.90;;;;;;4988976;28;20046;-68
2023/10/27 08:20:55;;;;;;;195.45;52.20;;;9.40;99.90;;;;;;4999817;28;20077;-69
2023/10/27 08:23:22;;;;;;;158.77;47.70;;;9.50;99.90;;;;;;4990058;28;20042;-68
2023/10/27 08:25:51;;;;;;;163.48;48.28;;;9.40;99.90;;;;;;4991075;28;20101;-69
2023/10/27 08:28:21;;;;;;;166.95;49.05;;;9.40;99.90;;;;;;4998576;28;20121;-70
2023/10/27 08:30:48;;;;;;;162.07;47.40;;;9.40;99.90;;;;;;4994879;28;20132;-70
2023/10/27 08:33:15;;;;;;;156.02;44.85;;;9.40;99.90;;;;;;4994727;28;20096;-68
2023/10/27 08:35:42;;;;;;;132.32;43.10;;;9.40;99.90;;;;;;4997148;28;20129;-69
2023/10/27 08:38:09;;;;;;;150.38;44.65;;;9.40;99.90;;;;;;4989132;28;20054;-69
2023/10/27 08:40:36;;;;;;;123.90;42.03;;;9.50;99.90;;;;;;4991705;28;20065;-69
2023/10/27 08:43:03;;;;;;;153.23;46.55;;;9.50;99.90;;;;;;4999166;28;20049;-69
2023/10/27 08:45:32;;;;;;;144.57;43.65;;;9.40;99.90;;;;;;4992718;28;20140;-70
2023/10/27 08:48:00;;;;;;;131.23;42.30;;;9.40;99.90;;;;;;4996419;28;20041;-68
2023/10/27 08:50:31;;;;;;;141.63;46.60;;;9.50;99.90;;;;;;4980785;28;20660;-69
2023/10/27 08:52:59;;;;;;;128.63;43.42;;;9.50;99.90;;;;;;4995158;28;20056;-70
2023/10/27 08:55:27;;;;;;;141.95;45.17;;;9.50;99.90;;;;;;4992862;28;20088;-69
2023/10/27 08:57:55;;;;;;;128.85;43.90;;;9.50;99.90;;;;;;4994786;28;20078;-69
2023/10/27 09:00:22;;;;;;;116.65;40.72;;;9.50;99.90;;;;;;4987661;28;20608;-69
2023/10/27 09:02:49;;;;;;;128.27;44.22;;;9.50;99.90;;;;;;4996252;28;20041;-68
2023/10/27 09:05:17;;;;;;;124.55;42.80;;;9.50;99.90;;;;;;5019822;28;20085;-67
2023/10/27 09:07:45;;;;;;;138.07;43.05;;;9.60;99.90;;;;;;5026004;28;20060;-68
2023/10/27 09:10:13;;;;;;;136.65;42.70;;;9.60;99.90;;;;;;5008201;28;20096;-68
2023/10/27 09:12:41;;;;;;;128.55;42.83;;;9.60;99.90;;;;;;4986608;28;21004;-69
2023/10/27 09:15:09;;;;;;;109.97;40.95;;;9.70;99.90;;;;;;4991636;28;20038;-68
2023/10/27 09:17:53;;;;;;;121.05;42.08;;;9.80;99.90;;;;;;4989484;28;20176;-67
2023/10/27 09:20:21;;;;;;;120.55;43.20;;;9.80;99.90;;;;;;4990724;28;20715;-68
2023/10/27 09:22:58;;;;;;;126.05;44.90;;;9.90;99.90;;;;;;5016805;28;20040;-68
2023/10/27 09:25:28;;;;;;;113.95;42.03;;;9.90;99.90;;;;;;4990535;28;20042;-68
2023/10/27 09:27:56;;;;;;;116.13;41.15;;;9.90;99.90;;;;;;4989486;28;20526;-68
2023/10/27 09:30:27;;;;;;;112.13;41.97;;;9.90;99.90;;;;;;4989034;28;20049;-69
2023/10/27 09:32:55;;;;;;;107.43;42.67;;;9.90;99.90;;;;;;4995491;28;20054;-68
2023/10/27 09:35:27;;;;;;;100.85;39.45;;;10.00;99.90;;;;;;4986381;28;20045;-68
2023/10/27 09:37:55;;;;;;;105.28;41.33;;;9.90;99.90;;;;;;5004555;28;20100;-68
2023/10/27 09:40:22;;;;;;;89.72;37.30;;;9.90;99.90;;;;;;4991026;28;20045;-67
2023/10/27 09:42:53;;;;;;;108.22;40.78;;;10.00;99.90;;;;;;4988008;28;20385;-69
2023/10/27 09:45:25;;;;;;;90.95;39.20;;;10.00;99.90;;;;;;4996043;28;20041;-67
2023/10/27 09:48:02;;;;;;;87.10;37.33;;;10.10;99.90;;;;;;4998967;28;20667;-69
2023/10/27 09:50:31;;;;;;;87.50;37.95;;;10.10;99.90;;;;;;4981841;28;20747;-69
2023/10/27 09:53:01;;;;;;;79.00;35.58;;;10.20;99.90;;;;;;4993044;28;20485;-68
2023/10/27 09:55:30;;;;;;;82.32;36.50;;;10.20;99.90;;;;;;4989760;28;20038;-69
2023/10/27 09:58:00;;;;;;;82.90;35.88;;;10.10;99.90;;;;;;4997392;28;20523;-68
2023/10/27 10:00:29;;;;;;;78.32;34.47;;;10.20;99.90;;;;;;4990277;28;20097;-67
2023/10/27 10:02:57;;;;;;;71.95;34.08;;;10.20;99.90;;;;;;4992879;28;20721;-69
2023/10/27 10:05:24;;;;;;;84.32;34.83;;;10.20;99.90;;;;;;4987213;28;20069;-64
2023/10/27 10:07:56;;;;;;;77.18;33.30;;;10.20;99.90;;;;;;4993681;28;20041;-67
2023/10/27 10:10:29;;;;;;;73.78;33.30;;;10.20;99.90;;;;;;4986900;28;20054;-67
2023/10/27 10:13:19;;;;;;;77.65;35.97;;;10.30;99.90;;;;;;4989054;28;20103;-68
2023/10/27 10:15:47;;;;;;;77.80;35.97;;;10.20;99.90;;;;;;4990268;28;20049;-68
2023/10/27 10:18:20;;;;;;;74.95;33.53;;;10.20;99.90;;;;;;4991296;28;20560;-67
2023/10/27 10:20:52;;;;;;;76.70;34.53;;;10.20;99.90;;;;;;4992346;28;20057;-67
2023/10/27 10:23:19;;;;;;;81.72;34.08;;;10.20;99.90;;;;;;4990574;28;20145;-67
2023/10/27 10:25:56;;;;;;;66.53;32.85;;;10.30;99.90;;;;;;4991316;28;20050;-68
2023/10/27 10:28:33;;;;;;;75.82;37.55;;;10.30;99.90;;;;;;4988457;28;20081;-68
2023/10/27 10:31:06;;;;;;;68.45;33.58;;;10.40;99.90;;;;;;4992041;28;20038;-67
2023/10/27 10:33:37;;;;;;;59.75;31.95;;;10.60;99.90;;;;;;4988075;28;20038;-71
2023/10/27 10:36:23;;;;;;;64.65;31.77;;;10.50;99.90;;;;;;4995221;28;20056;-68
2023/10/27 10:38:49;;;;;;;64.68;30.45;;;10.50;99.90;;;;;;4997344;28;21074;-68
2023/10/27 10:41:18;;;;;;;71.88;32.80;;;10.50;99.90;;;;;;4986119;28;20672;-68
2023/10/27 10:44:13;;;;;;;64.20;31.42;;;10.60;99.90;;;;;;4990569;28;20045;-68
2023/10/27 10:46:44;;;;;;;53.88;29.58;;;10.60;99.90;;;;;;4994562;28;20210;-68
2023/10/27 10:49:23;;;;;;;49.17;28.77;;;10.70;99.90;;;;;;4990526;28;20758;-69
2023/10/27 10:51:55;;;;;;;64.20;31.15;;;10.90;99.90;;;;;;4990476;28;20042;-68
2023/10/27 10:54:27;;;;;;;59.80;30.73;;;10.90;99.90;;;;;;4999837;28;20935;-68
2023/10/27 10:57:07;;;;;;;52.53;28.08;;;10.80;99.90;;;;;;4993251;28;20037;-69
2023/10/27 10:59:36;;;;;;;56.80;30.00;;;10.70;99.90;;;;;;4993809;28;20140;-69
2023/10/27 11:02:04;;;;;;;50.92;29.02;;;10.70;99.90;;;;;;4991440;28;20163;-69
2023/10/27 11:04:33;;;;;;;61.30;29.02;;;10.70;99.90;;;;;;4987995;28;20050;-68
2023/10/27 11:07:04;;;;;;;56.05;28.40;;;10.80;99.90;;;;;;4990630;28;20984;-68
2023/10/27 11:09:31;;;;;;;58.13;29.17;;;10.80;99.90;;;;;;4987836;28;20050;-69
2023/10/27 11:11:59;;;;;;;98.55;51.17;;;10.80;99.90;;;;;;4992664;28;20132;-68
2023/10/27 11:14:26;;;;;;;111.95;76.75;;;10.90;99.90;;;;;;4989061;28;20075;-68
2023/10/27 11:17:03;;;;;;;58.83;29.77;;;10.90;99.90;;;;;;4984607;28;20061;-69
2023/10/27 11:19:30;;;;;;;49.35;26.77;;;10.80;99.90;;;;;;4987865;28;20087;-67
2023/10/27 11:21:57;;;;;;;47.15;26.05;;;10.70;99.90;;;;;;4996509;28;20052;-68
2023/10/27 11:24:24;;;;;;;57.65;30.67;;;10.80;99.90;;;;;;4988954;28;20104;-67
2023/10/27 11:26:51;;;;;;;49.35;26.83;;;10.80;99.90;;;;;;4994291;28;20062;-67
2023/10/27 11:29:18;;;;;;;56.88;32.10;;;10.80;99.90;;;;;;4987210;28;20129;-68
2023/10/27 11:31:47;;;;;;;52.97;27.10;;;10.90;99.90;;;;;;4985273;28;20050;-68
2023/10/27 11:34:20;;;;;;;59.42;30.10;;;10.90;99.90;;;;;;4991467;28;20038;-68
2023/10/27 11:37:01;;;;;;;44.03;23.95;;;11.00;99.90;;;;;;4993286;28;20048;-69
2023/10/27 11:39:32;;;;;;;56.80;34.60;;;11.10;99.90;;;;;;4995205;28;20042;-67
2023/10/27 11:42:01;;;;;;;46.13;27.58;;;11.10;99.90;;;;;;4994320;28;20411;-68
2023/10/27 11:44:31;;;;;;;55.53;31.27;;;11.20;99.90;;;;;;4988962;28;20096;-67
2023/10/27 11:47:00;;;;;;;73.20;44.58;;;11.10;99.90;;;;;;4993150;28;20045;-68
2023/10/27 11:49:28;;;;;;;63.22;37.28;;;11.20;99.90;;;;;;4994695;28;20077;-68
2023/10/27 11:51:56;;;;;;;41.25;22.80;;;11.20;99.90;;;;;;5000565;28;20042;-68
2023/10/27 11:54:25;;;;;;;45.80;26.67;;;11.20;99.90;;;;;;4996545;28;20065;-68
2023/10/27 11:56:52;;;;;;;36.92;20.38;;;11.10;99.90;;;;;;4991990;28;20037;-69
2023/10/27 11:59:24;;;;;;;30.88;20.42;;;11.30;99.90;;;;;;4992691;28;20037;-68
2023/10/27 12:01:52;;;;;;;26.88;18.35;;;11.10;99.90;;;;;;5000553;28;20068;-68
2023/10/27 12:04:19;;;;;;;28.10;17.27;;;11.10;99.90;;;;;;4989728;28;20061;-67
2023/10/27 12:06:46;;;;;;;22.70;14.45;;;11.10;99.90;;;;;;4991372;28;21040;-68
2023/10/27 12:09:13;;;;;;;35.40;18.95;;;11.00;99.90;;;;;;5000710;28;20207;-69
2023/10/27 12:11:43;;;;;;;33.28;30.00;;;11.00;99.90;;;;;;4986253;28;20050;-68
2023/10/27 12:14:10;;;;;;;44.63;26.40;;;10.90;99.90;;;;;;5000753;28;20046;-68
2023/10/27 12:16:38;;;;;;;24.98;15.20;;;10.80;99.90;;;;;;4989001;28;20501;-67
2023/10/27 12:19:09;;;;;;;25.10;16.13;;;10.80;99.90;;;;;;4997571;28;20049;-68
2023/10/27 12:21:37;;;;;;;16.63;12.00;;;10.70;99.90;;;;;;4999639;28;20046;-68
2023/10/27 12:24:04;;;;;;;15.82;11.18;;;10.70;99.90;;;;;;4992705;28;20073;-68
2023/10/27 12:26:31;;;;;;;12.45;10.85;;;10.70;99.90;;;;;;4981012;28;20467;-68
2023/10/27 12:28:58;;;;;;;13.43;10.82;;;10.70;99.90;;;;;;4994265;28;20081;-67
2023/10/27 12:31:25;;;;;;;14.90;9.82;;;10.70;99.90;;;;;;4996382;28;20050;-67
2023/10/27 12:33:52;;;;;;;10.55;9.52;;;10.60;99.90;;;;;;4994570;28;20272;-67